sensor_id;sensor_type;location;lat;lon;timestamp;P1;durP1;ratioP1;P2;durP2;ratioP2
3997;SDS011;61314;53.444;9.902;2023-04-03T00:00:41;8.10;;;2.78;;
3997;SDS011;61314;53.444;9.902;2023-04-03T00:03:08;5.60;;;2.08;;
3997;SDS011;61314;53.444;9.902;2023-04-03T00:05:35;5.75;;;2.28;;
3997;SDS011;61314;53.444;9.902;2023-04-03T00:08:02;4.72;;;2.60;;
3997;SDS011;61314;53.444;9.902;2023-04-03T00:10:30;7.00;;;2.85;;
3997;SDS011;61314;53.444;9.902;2023-04-03T00:12:57;7.82;;;3.70;;
3997;SDS011;61314;53.444;9.902;2023-04-03T00:15:24;7.72;;;2.65;;
3997;SDS011;61314;53.444;9.902;2023-04-03T00:17:51;8.90;;;3.10;;
3997;SDS011;61314;53.444;9.902;2023-04-03T00:20:18;4.78;;;2.40;;
3997;SDS011;61314;53.444;9.902;2023-04-03T00:22:45;5.15;;;2.35;;
3997;SDS011;61314;53.444;9.902;2023-04-03T00:25:12;17.00;;;2.78;;
3997;SDS011;61314;53.444;9.902;2023-04-03T00:27:39;5.57;;;2.10;;
3997;SDS011;61314;53.444;9.902;2023-04-03T00:30:08;9.63;;;2.55;;
3997;SDS011;61314;53.444;9.902;2023-04-03T00:32:35;6.07;;;2.72;;
3997;SDS011;61314;53.444;9.902;2023-04-03T00:35:02;4.90;;;2.45;;
3997;SDS011;61314;53.444;9.902;2023-04-03T00:37:30;6.28;;;2.30;;
3997;SDS011;61314;53.444;9.902;2023-04-03T00:39:57;8.32;;;2.65;;
3997;SDS011;61314;53.444;9.902;2023-04-03T00:42:24;6.22;;;2.60;;
3997;SDS011;61314;53.444;9.902;2023-04-03T00:47:24;6.00;;;2.75;;
3997;SDS011;61314;53.444;9.902;2023-04-03T00:49:51;5.45;;;2.90;;
3997;SDS011;61314;53.444;9.902;2023-04-03T00:52:19;5.32;;;3.03;;
3997;SDS011;61314;53.444;9.902;2023-04-03T00:54:47;8.30;;;4.00;;
3997;SDS011;61314;53.444;9.902;2023-04-03T00:57:15;6.95;;;3.55;;
3997;SDS011;61314;53.444;9.902;2023-04-03T00:59:44;8.23;;;4.05;;
3997;SDS011;61314;53.444;9.902;2023-04-03T01:02:12;7.85;;;4.05;;
3997;SDS011;61314;53.444;9.902;2023-04-03T01:04:40;5.72;;;3.10;;
3997;SDS011;61314;53.444;9.902;2023-04-03T01:07:09;3.72;;;3.40;;
3997;SDS011;61314;53.444;9.902;2023-04-03T01:09:37;5.43;;;2.40;;
3997;SDS011;61314;53.444;9.902;2023-04-03T01:14:44;5.80;;;2.80;;
3997;SDS011;61314;53.444;9.902;2023-04-03T01:17:24;8.65;;;2.25;;
3997;SDS011;61314;53.444;9.902;2023-04-03T01:22:30;2.97;;;2.30;;
3997;SDS011;61314;53.444;9.902;2023-04-03T01:25:03;6.18;;;2.42;;
3997;SDS011;61314;53.444;9.902;2023-04-03T01:27:30;2.88;;;2.55;;
3997;SDS011;61314;53.444;9.902;2023-04-03T01:29:57;4.15;;;2.60;;
3997;SDS011;61314;53.444;9.902;2023-04-03T01:32:24;7.25;;;3.03;;
3997;SDS011;61314;53.444;9.902;2023-04-03T01:34:51;4.10;;;2.40;;
3997;SDS011;61314;53.444;9.902;2023-04-03T01:37:18;7.13;;;2.10;;
3997;SDS011;61314;53.444;9.902;2023-04-03T01:39:45;6.35;;;2.25;;
3997;SDS011;61314;53.444;9.902;2023-04-03T01:42:12;5.20;;;2.33;;
3997;SDS011;61314;53.444;9.902;2023-04-03T01:44:40;5.70;;;2.20;;
3997;SDS011;61314;53.444;9.902;2023-04-03T01:47:07;11.73;;;2.60;;
3997;SDS011;61314;53.444;9.902;2023-04-03T01:49:34;5.80;;;2.03;;
3997;SDS011;61314;53.444;9.902;2023-04-03T01:52:00;4.25;;;2.20;;
3997;SDS011;61314;53.444;9.902;2023-04-03T01:54:27;9.88;;;2.45;;
3997;SDS011;61314;53.444;9.902;2023-04-03T01:56:54;3.33;;;2.90;;
3997;SDS011;61314;53.444;9.902;2023-04-03T01:59:21;3.88;;;2.03;;
3997;SDS011;61314;53.444;9.902;2023-04-03T02:01:49;6.65;;;2.35;;
3997;SDS011;61314;53.444;9.902;2023-04-03T02:04:16;9.18;;;2.85;;
3997;SDS011;61314;53.444;9.902;2023-04-03T02:06:43;3.35;;;2.03;;
3997;SDS011;61314;53.444;9.902;2023-04-03T02:09:10;8.50;;;2.30;;
3997;SDS011;61314;53.444;9.902;2023-04-03T02:11:37;8.68;;;2.22;;
3997;SDS011;61314;53.444;9.902;2023-04-03T02:14:04;5.78;;;2.35;;
3997;SDS011;61314;53.444;9.902;2023-04-03T02:16:31;9.43;;;4.22;;
3997;SDS011;61314;53.444;9.902;2023-04-03T02:18:58;5.18;;;2.55;;
3997;SDS011;61314;53.444;9.902;2023-04-03T02:21:25;7.05;;;1.60;;
3997;SDS011;61314;53.444;9.902;2023-04-03T02:23:52;3.15;;;2.10;;
3997;SDS011;61314;53.444;9.902;2023-04-03T02:26:19;4.20;;;1.70;;
3997;SDS011;61314;53.444;9.902;2023-04-03T02:28:47;3.45;;;1.83;;
3997;SDS011;61314;53.444;9.902;2023-04-03T02:31:14;3.90;;;2.15;;
3997;SDS011;61314;53.444;9.902;2023-04-03T02:33:41;8.60;;;2.00;;
3997;SDS011;61314;53.444;9.902;2023-04-03T02:36:08;2.70;;;2.08;;
3997;SDS011;61314;53.444;9.902;2023-04-03T02:38:35;3.40;;;2.10;;
3997;SDS011;61314;53.444;9.902;2023-04-03T02:41:04;3.45;;;2.25;;
3997;SDS011;61314;53.444;9.902;2023-04-03T02:43:31;4.22;;;2.40;;
3997;SDS011;61314;53.444;9.902;2023-04-03T02:45:58;4.93;;;2.65;;
3997;SDS011;61314;53.444;9.902;2023-04-03T02:48:25;7.07;;;2.42;;
3997;SDS011;61314;53.444;9.902;2023-04-03T02:50:52;7.38;;;2.50;;
3997;SDS011;61314;53.444;9.902;2023-04-03T02:53:19;8.48;;;2.70;;
3997;SDS011;61314;53.444;9.902;2023-04-03T02:55:47;5.78;;;2.45;;
3997;SDS011;61314;53.444;9.902;2023-04-03T02:58:14;4.80;;;2.30;;
3997;SDS011;61314;53.444;9.902;2023-04-03T03:00:41;4.25;;;2.40;;
3997;SDS011;61314;53.444;9.902;2023-04-03T03:03:08;7.65;;;2.67;;
3997;SDS011;61314;53.444;9.902;2023-04-03T03:05:36;4.53;;;1.77;;
3997;SDS011;61314;53.444;9.902;2023-04-03T03:08:02;8.55;;;2.58;;
3997;SDS011;61314;53.444;9.902;2023-04-03T03:10:29;11.60;;;2.60;;
3997;SDS011;61314;53.444;9.902;2023-04-03T03:12:56;5.88;;;3.50;;
3997;SDS011;61314;53.444;9.902;2023-04-03T03:15:23;10.07;;;2.60;;
3997;SDS011;61314;53.444;9.902;2023-04-03T03:17:50;10.85;;;2.90;;
3997;SDS011;61314;53.444;9.902;2023-04-03T03:20:17;4.68;;;2.05;;
3997;SDS011;61314;53.444;9.902;2023-04-03T03:22:44;2.78;;;2.20;;
3997;SDS011;61314;53.444;9.902;2023-04-03T03:25:11;3.45;;;2.08;;
3997;SDS011;61314;53.444;9.902;2023-04-03T03:27:38;7.68;;;2.20;;
3997;SDS011;61314;53.444;9.902;2023-04-03T03:30:05;5.55;;;1.70;;
3997;SDS011;61314;53.444;9.902;2023-04-03T03:32:33;10.63;;;3.20;;
3997;SDS011;61314;53.444;9.902;2023-04-03T03:35:00;5.53;;;2.05;;
3997;SDS011;61314;53.444;9.902;2023-04-03T03:37:27;7.20;;;2.92;;
3997;SDS011;61314;53.444;9.902;2023-04-03T03:39:54;7.60;;;2.55;;
3997;SDS011;61314;53.444;9.902;2023-04-03T03:42:21;5.18;;;2.22;;
3997;SDS011;61314;53.444;9.902;2023-04-03T03:44:48;4.47;;;2.40;;
3997;SDS011;61314;53.444;9.902;2023-04-03T03:47:16;4.88;;;2.15;;
3997;SDS011;61314;53.444;9.902;2023-04-03T03:49:43;9.82;;;2.45;;
3997;SDS011;61314;53.444;9.902;2023-04-03T03:52:10;3.50;;;2.28;;
3997;SDS011;61314;53.444;9.902;2023-04-03T03:54:37;5.65;;;2.30;;
3997;SDS011;61314;53.444;9.902;2023-04-03T03:57:04;3.50;;;2.53;;
3997;SDS011;61314;53.444;9.902;2023-04-03T03:59:31;3.78;;;2.20;;
3997;SDS011;61314;53.444;9.902;2023-04-03T04:01:58;5.35;;;2.50;;
3997;SDS011;61314;53.444;9.902;2023-04-03T04:04:26;9.65;;;2.50;;
3997;SDS011;61314;53.444;9.902;2023-04-03T04:06:53;5.45;;;2.47;;
3997;SDS011;61314;53.444;9.902;2023-04-03T04:09:20;6.70;;;2.53;;
3997;SDS011;61314;53.444;9.902;2023-04-03T04:11:47;11.07;;;2.42;;
3997;SDS011;61314;53.444;9.902;2023-04-03T04:14:14;4.22;;;1.95;;
3997;SDS011;61314;53.444;9.902;2023-04-03T04:16:41;5.75;;;2.45;;
3997;SDS011;61314;53.444;9.902;2023-04-03T04:19:08;8.02;;;1.80;;
3997;SDS011;61314;53.444;9.902;2023-04-03T04:21:35;3.58;;;2.20;;
3997;SDS011;61314;53.444;9.902;2023-04-03T04:24:02;8.10;;;2.35;;
3997;SDS011;61314;53.444;9.902;2023-04-03T04:26:29;7.88;;;2.47;;
3997;SDS011;61314;53.444;9.902;2023-04-03T04:28:56;3.25;;;1.95;;
3997;SDS011;61314;53.444;9.902;2023-04-03T04:31:23;5.55;;;2.85;;
3997;SDS011;61314;53.444;9.902;2023-04-03T04:33:50;6.55;;;2.42;;
3997;SDS011;61314;53.444;9.902;2023-04-03T04:36:18;11.80;;;2.38;;
3997;SDS011;61314;53.444;9.902;2023-04-03T04:38:45;6.20;;;2.80;;
3997;SDS011;61314;53.444;9.902;2023-04-03T04:41:12;5.40;;;2.92;;
3997;SDS011;61314;53.444;9.902;2023-04-03T04:43:39;13.52;;;2.80;;
3997;SDS011;61314;53.444;9.902;2023-04-03T04:46:08;5.55;;;2.60;;
3997;SDS011;61314;53.444;9.902;2023-04-03T04:48:36;7.45;;;3.22;;
3997;SDS011;61314;53.444;9.902;2023-04-03T04:51:03;13.40;;;3.17;;
3997;SDS011;61314;53.444;9.902;2023-04-03T04:53:30;4.35;;;2.78;;
3997;SDS011;61314;53.444;9.902;2023-04-03T04:55:57;4.32;;;2.55;;
3997;SDS011;61314;53.444;9.902;2023-04-03T04:58:24;4.97;;;3.05;;
3997;SDS011;61314;53.444;9.902;2023-04-03T05:00:58;9.73;;;3.20;;
3997;SDS011;61314;53.444;9.902;2023-04-03T05:03:26;4.05;;;3.10;;
3997;SDS011;61314;53.444;9.902;2023-04-03T05:05:53;9.70;;;3.92;;
3997;SDS011;61314;53.444;9.902;2023-04-03T05:08:20;8.57;;;3.38;;
3997;SDS011;61314;53.444;9.902;2023-04-03T05:10:47;7.72;;;3.22;;
3997;SDS011;61314;53.444;9.902;2023-04-03T05:13:14;6.95;;;4.18;;
3997;SDS011;61314;53.444;9.902;2023-04-03T05:15:41;16.08;;;3.63;;
3997;SDS011;61314;53.444;9.902;2023-04-03T05:18:08;6.72;;;4.07;;
3997;SDS011;61314;53.444;9.902;2023-04-03T05:20:35;10.85;;;4.05;;
3997;SDS011;61314;53.444;9.902;2023-04-03T05:23:03;10.18;;;4.50;;
3997;SDS011;61314;53.444;9.902;2023-04-03T05:25:30;15.77;;;5.15;;
3997;SDS011;61314;53.444;9.902;2023-04-03T05:27:57;12.15;;;5.80;;
3997;SDS011;61314;53.444;9.902;2023-04-03T05:30:24;13.30;;;4.82;;
3997;SDS011;61314;53.444;9.902;2023-04-03T05:32:51;15.00;;;5.70;;
3997;SDS011;61314;53.444;9.902;2023-04-03T05:35:18;8.77;;;4.80;;
3997;SDS011;61314;53.444;9.902;2023-04-03T05:37:45;8.38;;;5.30;;
3997;SDS011;61314;53.444;9.902;2023-04-03T05:40:12;13.15;;;5.88;;
3997;SDS011;61314;53.444;9.902;2023-04-03T05:42:40;15.95;;;5.05;;
3997;SDS011;61314;53.444;9.902;2023-04-03T05:45:07;10.90;;;5.63;;
3997;SDS011;61314;53.444;9.902;2023-04-03T05:47:34;8.45;;;5.57;;
3997;SDS011;61314;53.444;9.902;2023-04-03T05:50:02;5.82;;;4.75;;
3997;SDS011;61314;53.444;9.902;2023-04-03T05:52:30;11.73;;;4.82;;
3997;SDS011;61314;53.444;9.902;2023-04-03T05:54:58;8.77;;;4.65;;
3997;SDS011;61314;53.444;9.902;2023-04-03T05:57:25;17.67;;;4.82;;
3997;SDS011;61314;53.444;9.902;2023-04-03T05:59:52;19.30;;;5.05;;
3997;SDS011;61314;53.444;9.902;2023-04-03T06:02:20;11.35;;;4.13;;
3997;SDS011;61314;53.444;9.902;2023-04-03T06:04:47;9.63;;;4.38;;
3997;SDS011;61314;53.444;9.902;2023-04-03T06:07:15;10.95;;;4.53;;
3997;SDS011;61314;53.444;9.902;2023-04-03T06:09:43;9.45;;;3.95;;
3997;SDS011;61314;53.444;9.902;2023-04-03T06:12:11;7.80;;;3.55;;
3997;SDS011;61314;53.444;9.902;2023-04-03T06:14:37;11.43;;;3.65;;
3997;SDS011;61314;53.444;9.902;2023-04-03T06:17:05;6.70;;;3.08;;
3997;SDS011;61314;53.444;9.902;2023-04-03T06:19:32;14.18;;;4.15;;
3997;SDS011;61314;53.444;9.902;2023-04-03T06:21:59;5.78;;;3.45;;
3997;SDS011;61314;53.444;9.902;2023-04-03T06:24:26;8.70;;;3.83;;
3997;SDS011;61314;53.444;9.902;2023-04-03T06:26:53;9.30;;;3.50;;
3997;SDS011;61314;53.444;9.902;2023-04-03T06:29:20;7.25;;;3.30;;
3997;SDS011;61314;53.444;9.902;2023-04-03T06:31:48;12.57;;;4.88;;
3997;SDS011;61314;53.444;9.902;2023-04-03T06:34:15;7.63;;;3.60;;
3997;SDS011;61314;53.444;9.902;2023-04-03T06:36:45;7.70;;;4.22;;
3997;SDS011;61314;53.444;9.902;2023-04-03T06:39:16;13.18;;;4.80;;
3997;SDS011;61314;53.444;9.902;2023-04-03T06:41:43;7.13;;;3.03;;
3997;SDS011;61314;53.444;9.902;2023-04-03T06:44:11;6.18;;;3.45;;
3997;SDS011;61314;53.444;9.902;2023-04-03T06:46:39;10.23;;;3.50;;
3997;SDS011;61314;53.444;9.902;2023-04-03T06:49:06;10.02;;;2.92;;
3997;SDS011;61314;53.444;9.902;2023-04-03T06:51:34;13.88;;;3.22;;
3997;SDS011;61314;53.444;9.902;2023-04-03T06:54:01;6.47;;;2.70;;
3997;SDS011;61314;53.444;9.902;2023-04-03T06:56:28;4.28;;;2.25;;
3997;SDS011;61314;53.444;9.902;2023-04-03T06:58:56;9.82;;;3.00;;
3997;SDS011;61314;53.444;9.902;2023-04-03T07:01:24;7.45;;;2.20;;
3997;SDS011;61314;53.444;9.902;2023-04-03T07:03:54;4.93;;;2.70;;
3997;SDS011;61314;53.444;9.902;2023-04-03T07:06:21;6.70;;;2.20;;
3997;SDS011;61314;53.444;9.902;2023-04-03T07:08:48;5.47;;;1.83;;
3997;SDS011;61314;53.444;9.902;2023-04-03T07:11:16;7.13;;;2.33;;
3997;SDS011;61314;53.444;9.902;2023-04-03T07:13:43;7.10;;;3.13;;
3997;SDS011;61314;53.444;9.902;2023-04-03T07:16:10;4.38;;;2.53;;
3997;SDS011;61314;53.444;9.902;2023-04-03T07:18:37;6.97;;;2.40;;
3997;SDS011;61314;53.444;9.902;2023-04-03T07:21:04;6.15;;;2.53;;
3997;SDS011;61314;53.444;9.902;2023-04-03T07:23:32;6.30;;;2.58;;
3997;SDS011;61314;53.444;9.902;2023-04-03T07:25:59;7.93;;;2.47;;
3997;SDS011;61314;53.444;9.902;2023-04-03T07:28:26;5.78;;;2.10;;
3997;SDS011;61314;53.444;9.902;2023-04-03T07:30:54;8.30;;;2.20;;
3997;SDS011;61314;53.444;9.902;2023-04-03T07:33:22;4.20;;;2.58;;
3997;SDS011;61314;53.444;9.902;2023-04-03T07:35:49;2.80;;;1.80;;
3997;SDS011;61314;53.444;9.902;2023-04-03T07:38:16;4.57;;;1.60;;
3997;SDS011;61314;53.444;9.902;2023-04-03T07:40:48;3.38;;;1.88;;
3997;SDS011;61314;53.444;9.902;2023-04-03T07:43:16;10.52;;;2.00;;
3997;SDS011;61314;53.444;9.902;2023-04-03T07:45:43;11.10;;;2.92;;
3997;SDS011;61314;53.444;9.902;2023-04-03T07:48:10;12.48;;;2.08;;
3997;SDS011;61314;53.444;9.902;2023-04-03T07:50:39;5.10;;;1.90;;
3997;SDS011;61314;53.444;9.902;2023-04-03T07:53:06;4.05;;;1.70;;
3997;SDS011;61314;53.444;9.902;2023-04-03T07:55:34;7.95;;;1.80;;
3997;SDS011;61314;53.444;9.902;2023-04-03T07:58:06;7.18;;;1.50;;
3997;SDS011;61314;53.444;9.902;2023-04-03T08:00:33;3.85;;;1.83;;
3997;SDS011;61314;53.444;9.902;2023-04-03T08:03:00;6.68;;;2.30;;
3997;SDS011;61314;53.444;9.902;2023-04-03T08:05:28;2.40;;;1.73;;
3997;SDS011;61314;53.444;9.902;2023-04-03T08:07:55;5.88;;;1.75;;
3997;SDS011;61314;53.444;9.902;2023-04-03T08:10:22;3.88;;;1.20;;
3997;SDS011;61314;53.444;9.902;2023-04-03T08:12:49;3.35;;;1.52;;
3997;SDS011;61314;53.444;9.902;2023-04-03T08:15:17;3.75;;;1.58;;
3997;SDS011;61314;53.444;9.902;2023-04-03T08:17:44;4.15;;;1.20;;
3997;SDS011;61314;53.444;9.902;2023-04-03T08:20:11;4.07;;;1.20;;
3997;SDS011;61314;53.444;9.902;2023-04-03T08:22:38;6.13;;;1.80;;
3997;SDS011;61314;53.444;9.902;2023-04-03T08:25:06;6.65;;;1.75;;
3997;SDS011;61314;53.444;9.902;2023-04-03T08:27:33;6.95;;;1.67;;
3997;SDS011;61314;53.444;9.902;2023-04-03T08:30:01;1.77;;;1.67;;
3997;SDS011;61314;53.444;9.902;2023-04-03T08:32:29;11.13;;;1.60;;
3997;SDS011;61314;53.444;9.902;2023-04-03T08:34:56;6.13;;;2.13;;
3997;SDS011;61314;53.444;9.902;2023-04-03T08:37:23;4.07;;;1.40;;
3997;SDS011;61314;53.444;9.902;2023-04-03T08:39:50;6.15;;;1.70;;
3997;SDS011;61314;53.444;9.902;2023-04-03T08:42:33;3.83;;;1.83;;
3997;SDS011;61314;53.444;9.902;2023-04-03T08:45:10;3.55;;;1.40;;
3997;SDS011;61314;53.444;9.902;2023-04-03T08:50:29;2.70;;;1.40;;
3997;SDS011;61314;53.444;9.902;2023-04-03T08:52:57;2.58;;;1.45;;
3997;SDS011;61314;53.444;9.902;2023-04-03T08:55:31;3.97;;;1.45;;
3997;SDS011;61314;53.444;9.902;2023-04-03T08:58:00;2.67;;;1.58;;
3997;SDS011;61314;53.444;9.902;2023-04-03T09:00:34;6.10;;;1.27;;
3997;SDS011;61314;53.444;9.902;2023-04-03T09:03:04;5.57;;;1.83;;
3997;SDS011;61314;53.444;9.902;2023-04-03T09:08:28;1.83;;;0.88;;
3997;SDS011;61314;53.444;9.902;2023-04-03T09:13:49;4.68;;;1.52;;
3997;SDS011;61314;53.444;9.902;2023-04-03T09:17:23;4.32;;;1.40;;
3997;SDS011;61314;53.444;9.902;2023-04-03T09:22:09;5.00;;;1.30;;
3997;SDS011;61314;53.444;9.902;2023-04-03T09:24:39;4.10;;;1.17;;
3997;SDS011;61314;53.444;9.902;2023-04-03T09:27:10;7.47;;;1.60;;
3997;SDS011;61314;53.444;9.902;2023-04-03T09:29:42;10.18;;;1.30;;
3997;SDS011;61314;53.444;9.902;2023-04-03T09:32:26;4.03;;;1.50;;
3997;SDS011;61314;53.444;9.902;2023-04-03T09:34:54;6.85;;;1.70;;
3997;SDS011;61314;53.444;9.902;2023-04-03T09:37:42;3.97;;;2.33;;
3997;SDS011;61314;53.444;9.902;2023-04-03T09:42:52;5.65;;;1.50;;
3997;SDS011;61314;53.444;9.902;2023-04-03T09:45:30;1.63;;;1.30;;
3997;SDS011;61314;53.444;9.902;2023-04-03T09:53:33;7.05;;;1.77;;
3997;SDS011;61314;53.444;9.902;2023-04-03T09:58:40;3.88;;;1.02;;
3997;SDS011;61314;53.444;9.902;2023-04-03T10:01:23;1.85;;;0.95;;
3997;SDS011;61314;53.444;9.902;2023-04-03T10:04:08;1.85;;;1.30;;
3997;SDS011;61314;53.444;9.902;2023-04-03T10:06:38;2.13;;;1.45;;
3997;SDS011;61314;53.444;9.902;2023-04-03T10:11:56;3.50;;;1.42;;
3997;SDS011;61314;53.444;9.902;2023-04-03T10:14:24;3.35;;;1.17;;
3997;SDS011;61314;53.444;9.902;2023-04-03T10:19:29;5.68;;;1.02;;
3997;SDS011;61314;53.444;9.902;2023-04-03T10:24:51;4.55;;;1.25;;
3997;SDS011;61314;53.444;9.902;2023-04-03T10:27:26;2.00;;;1.63;;
3997;SDS011;61314;53.444;9.902;2023-04-03T10:30:15;4.18;;;1.33;;
3997;SDS011;61314;53.444;9.902;2023-04-03T10:35:20;2.83;;;1.20;;
3997;SDS011;61314;53.444;9.902;2023-04-03T10:43:01;3.60;;;1.13;;
3997;SDS011;61314;53.444;9.902;2023-04-03T10:45:31;7.90;;;1.23;;
3997;SDS011;61314;53.444;9.902;2023-04-03T10:48:04;3.35;;;1.10;;
3997;SDS011;61314;53.444;9.902;2023-04-03T10:50:51;2.42;;;1.23;;
3997;SDS011;61314;53.444;9.902;2023-04-03T10:53:24;5.97;;;2.50;;
3997;SDS011;61314;53.444;9.902;2023-04-03T10:56:03;3.13;;;1.15;;
3997;SDS011;61314;53.444;9.902;2023-04-03T10:58:35;2.95;;;1.10;;
3997;SDS011;61314;53.444;9.902;2023-04-03T11:01:06;2.20;;;1.15;;
3997;SDS011;61314;53.444;9.902;2023-04-03T11:03:35;1.42;;;0.95;;
3997;SDS011;61314;53.444;9.902;2023-04-03T11:06:05;2.28;;;1.10;;
3997;SDS011;61314;53.444;9.902;2023-04-03T11:11:27;1.88;;;1.02;;
3997;SDS011;61314;53.444;9.902;2023-04-03T11:14:05;4.40;;;1.70;;
3997;SDS011;61314;53.444;9.902;2023-04-03T11:16:38;2.58;;;1.10;;
3997;SDS011;61314;53.444;9.902;2023-04-03T11:19:19;1.60;;;0.98;;
3997;SDS011;61314;53.444;9.902;2023-04-03T11:22:09;6.63;;;1.15;;
3997;SDS011;61314;53.444;9.902;2023-04-03T11:24:39;2.88;;;1.33;;
3997;SDS011;61314;53.444;9.902;2023-04-03T11:27:11;3.17;;;1.25;;
3997;SDS011;61314;53.444;9.902;2023-04-03T11:29:41;2.33;;;1.10;;
3997;SDS011;61314;53.444;9.902;2023-04-03T11:34:50;1.75;;;1.10;;
3997;SDS011;61314;53.444;9.902;2023-04-03T11:37:38;6.68;;;1.60;;
3997;SDS011;61314;53.444;9.902;2023-04-03T11:40:28;3.55;;;1.42;;
3997;SDS011;61314;53.444;9.902;2023-04-03T11:50:50;1.60;;;1.10;;
3997;SDS011;61314;53.444;9.902;2023-04-03T11:58:13;7.07;;;1.38;;
3997;SDS011;61314;53.444;9.902;2023-04-03T12:08:26;2.05;;;1.00;;
3997;SDS011;61314;53.444;9.902;2023-04-03T12:13:40;5.00;;;1.55;;
3997;SDS011;61314;53.444;9.902;2023-04-03T12:16:21;4.70;;;1.67;;
3997;SDS011;61314;53.444;9.902;2023-04-03T12:21:17;3.60;;;1.37;;
3997;SDS011;61314;53.444;9.902;2023-04-03T12:26:42;2.43;;;1.53;;
3997;SDS011;61314;53.444;9.902;2023-04-03T12:31:45;3.53;;;1.30;;
3997;SDS011;61314;53.444;9.902;2023-04-03T12:34:18;3.45;;;1.80;;
3997;SDS011;61314;53.444;9.902;2023-04-03T12:36:54;3.92;;;1.38;;
3997;SDS011;61314;53.444;9.902;2023-04-03T12:39:33;2.45;;;1.00;;
3997;SDS011;61314;53.444;9.902;2023-04-03T12:45:29;2.57;;;1.47;;
3997;SDS011;61314;53.444;9.902;2023-04-03T12:47:56;3.25;;;1.35;;
3997;SDS011;61314;53.444;9.902;2023-04-03T12:50:24;4.25;;;1.50;;
3997;SDS011;61314;53.444;9.902;2023-04-03T12:52:54;3.85;;;1.55;;
3997;SDS011;61314;53.444;9.902;2023-04-03T12:55:23;4.30;;;1.50;;
3997;SDS011;61314;53.444;9.902;2023-04-03T12:57:50;4.35;;;1.15;;
3997;SDS011;61314;53.444;9.902;2023-04-03T13:00:30;3.10;;;1.38;;
3997;SDS011;61314;53.444;9.902;2023-04-03T13:02:59;4.65;;;1.52;;
3997;SDS011;61314;53.444;9.902;2023-04-03T13:05:27;3.33;;;1.55;;
3997;SDS011;61314;53.444;9.902;2023-04-03T13:08:05;6.28;;;1.50;;
3997;SDS011;61314;53.444;9.902;2023-04-03T13:10:32;3.65;;;1.50;;
3997;SDS011;61314;53.444;9.902;2023-04-03T13:13:09;2.78;;;1.30;;
3997;SDS011;61314;53.444;9.902;2023-04-03T13:15:41;1.52;;;1.00;;
3997;SDS011;61314;53.444;9.902;2023-04-03T13:18:25;1.70;;;1.50;;
3997;SDS011;61314;53.444;9.902;2023-04-03T13:20:53;3.08;;;1.23;;
3997;SDS011;61314;53.444;9.902;2023-04-03T13:23:23;6.57;;;1.55;;
3997;SDS011;61314;53.444;9.902;2023-04-03T13:25:50;2.20;;;1.25;;
3997;SDS011;61314;53.444;9.902;2023-04-03T13:28:20;3.88;;;1.50;;
3997;SDS011;61314;53.444;9.902;2023-04-03T13:33:54;2.22;;;1.13;;
3997;SDS011;61314;53.444;9.902;2023-04-03T13:36:23;2.13;;;1.00;;
3997;SDS011;61314;53.444;9.902;2023-04-03T13:46:57;2.60;;;1.42;;
3997;SDS011;61314;53.444;9.902;2023-04-03T13:49:32;3.85;;;1.40;;
3997;SDS011;61314;53.444;9.902;2023-04-03T13:51:59;2.50;;;1.10;;
3997;SDS011;61314;53.444;9.902;2023-04-03T13:57:00;2.70;;;1.70;;
3997;SDS011;61314;53.444;9.902;2023-04-03T13:59:32;1.55;;;1.00;;
3997;SDS011;61314;53.444;9.902;2023-04-03T14:04:30;3.35;;;1.55;;
3997;SDS011;61314;53.444;9.902;2023-04-03T14:06:58;5.22;;;1.08;;
3997;SDS011;61314;53.444;9.902;2023-04-03T14:09:26;1.75;;;1.20;;
3997;SDS011;61314;53.444;9.902;2023-04-03T14:11:54;4.30;;;1.20;;
3997;SDS011;61314;53.444;9.902;2023-04-03T14:14:24;3.38;;;1.17;;
3997;SDS011;61314;53.444;9.902;2023-04-03T14:16:54;1.95;;;1.10;;
3997;SDS011;61314;53.444;9.902;2023-04-03T14:19:23;3.72;;;1.23;;
3997;SDS011;61314;53.444;9.902;2023-04-03T14:21:51;2.22;;;1.38;;
3997;SDS011;61314;53.444;9.902;2023-04-03T14:24:19;1.88;;;1.10;;
3997;SDS011;61314;53.444;9.902;2023-04-03T14:26:46;3.20;;;1.25;;
3997;SDS011;61314;53.444;9.902;2023-04-03T14:29:13;2.53;;;1.50;;
3997;SDS011;61314;53.444;9.902;2023-04-03T14:31:41;2.90;;;1.20;;
3997;SDS011;61314;53.444;9.902;2023-04-03T14:34:12;1.80;;;1.30;;
3997;SDS011;61314;53.444;9.902;2023-04-03T14:36:40;4.95;;;1.60;;
3997;SDS011;61314;53.444;9.902;2023-04-03T14:39:10;3.30;;;1.55;;
3997;SDS011;61314;53.444;9.902;2023-04-03T14:41:38;4.72;;;1.70;;
3997;SDS011;61314;53.444;9.902;2023-04-03T14:44:04;2.85;;;1.35;;
3997;SDS011;61314;53.444;9.902;2023-04-03T14:46:33;2.58;;;1.30;;
3997;SDS011;61314;53.444;9.902;2023-04-03T14:49:22;1.52;;;1.20;;
3997;SDS011;61314;53.444;9.902;2023-04-03T14:51:49;4.28;;;1.20;;
3997;SDS011;61314;53.444;9.902;2023-04-03T14:54:18;2.92;;;1.50;;
3997;SDS011;61314;53.444;9.902;2023-04-03T14:56:47;2.20;;;0.90;;
3997;SDS011;61314;53.444;9.902;2023-04-03T14:59:14;4.13;;;1.23;;
3997;SDS011;61314;53.444;9.902;2023-04-03T15:01:43;2.28;;;1.58;;
3997;SDS011;61314;53.444;9.902;2023-04-03T15:04:17;2.53;;;1.65;;
3997;SDS011;61314;53.444;9.902;2023-04-03T15:06:44;4.40;;;1.88;;
3997;SDS011;61314;53.444;9.902;2023-04-03T15:09:19;2.67;;;1.27;;
3997;SDS011;61314;53.444;9.902;2023-04-03T15:11:47;4.35;;;1.25;;
3997;SDS011;61314;53.444;9.902;2023-04-03T15:14:15;7.05;;;1.58;;
3997;SDS011;61314;53.444;9.902;2023-04-03T15:17:02;2.58;;;1.25;;
3997;SDS011;61314;53.444;9.902;2023-04-03T15:19:30;2.60;;;1.30;;
3997;SDS011;61314;53.444;9.902;2023-04-03T15:21:58;4.97;;;1.30;;
3997;SDS011;61314;53.444;9.902;2023-04-03T15:24:25;1.60;;;1.17;;
3997;SDS011;61314;53.444;9.902;2023-04-03T15:26:52;2.28;;;1.35;;
3997;SDS011;61314;53.444;9.902;2023-04-03T15:29:19;4.25;;;1.27;;
3997;SDS011;61314;53.444;9.902;2023-04-03T15:31:45;2.75;;;1.60;;
3997;SDS011;61314;53.444;9.902;2023-04-03T15:34:13;6.50;;;1.10;;
3997;SDS011;61314;53.444;9.902;2023-04-03T15:36:40;2.47;;;1.10;;
3997;SDS011;61314;53.444;9.902;2023-04-03T15:39:07;2.95;;;1.25;;
3997;SDS011;61314;53.444;9.902;2023-04-03T15:41:34;1.70;;;1.20;;
3997;SDS011;61314;53.444;9.902;2023-04-03T15:44:01;3.88;;;1.33;;
3997;SDS011;61314;53.444;9.902;2023-04-03T15:46:28;2.63;;;1.38;;
3997;SDS011;61314;53.444;9.902;2023-04-03T15:48:55;2.10;;;1.50;;
3997;SDS011;61314;53.444;9.902;2023-04-03T15:51:22;1.90;;;1.02;;
3997;SDS011;61314;53.444;9.902;2023-04-03T15:53:49;2.97;;;1.40;;
3997;SDS011;61314;53.444;9.902;2023-04-03T15:56:16;4.53;;;1.60;;
3997;SDS011;61314;53.444;9.902;2023-04-03T15:58:43;5.05;;;1.75;;
3997;SDS011;61314;53.444;9.902;2023-04-03T16:01:10;3.83;;;1.40;;
3997;SDS011;61314;53.444;9.902;2023-04-03T16:03:39;4.40;;;1.48;;
3997;SDS011;61314;53.444;9.902;2023-04-03T16:06:11;2.58;;;1.55;;
3997;SDS011;61314;53.444;9.902;2023-04-03T16:08:39;3.10;;;1.08;;
3997;SDS011;61314;53.444;9.902;2023-04-03T16:11:06;1.30;;;1.20;;
3997;SDS011;61314;53.444;9.902;2023-04-03T16:13:33;4.35;;;1.50;;
3997;SDS011;61314;53.444;9.902;2023-04-03T16:16:01;2.20;;;1.10;;
3997;SDS011;61314;53.444;9.902;2023-04-03T16:18:29;3.50;;;1.75;;
3997;SDS011;61314;53.444;9.902;2023-04-03T16:20:56;1.50;;;1.20;;
3997;SDS011;61314;53.444;9.902;2023-04-03T16:23:23;10.18;;;1.60;;
3997;SDS011;61314;53.444;9.902;2023-04-03T16:25:50;1.88;;;1.20;;
3997;SDS011;61314;53.444;9.902;2023-04-03T16:28:17;4.93;;;1.88;;
3997;SDS011;61314;53.444;9.902;2023-04-03T16:30:45;5.80;;;1.50;;
3997;SDS011;61314;53.444;9.902;2023-04-03T16:33:13;5.82;;;1.88;;
3997;SDS011;61314;53.444;9.902;2023-04-03T16:35:40;3.92;;;1.90;;
3997;SDS011;61314;53.444;9.902;2023-04-03T16:38:09;5.10;;;1.58;;
3997;SDS011;61314;53.444;9.902;2023-04-03T16:40:36;1.73;;;1.40;;
3997;SDS011;61314;53.444;9.902;2023-04-03T16:43:03;7.32;;;2.00;;
3997;SDS011;61314;53.444;9.902;2023-04-03T16:45:30;2.65;;;1.75;;
3997;SDS011;61314;53.444;9.902;2023-04-03T16:47:57;3.67;;;1.40;;
3997;SDS011;61314;53.444;9.902;2023-04-03T16:50:24;5.10;;;1.88;;
3997;SDS011;61314;53.444;9.902;2023-04-03T16:52:51;3.60;;;1.02;;